createdAt,value
2023-01-26T00:00:41.776Z,17.77
2023-01-26T00:01:45.224Z,16.02
2023-01-26T00:02:49.084Z,17.15
2023-01-26T00:03:52.730Z,16.83
2023-01-26T00:04:56.170Z,17.25
2023-01-26T00:06:04.937Z,16.85
2023-01-26T00:07:08.349Z,16.70
2023-01-26T00:08:11.367Z,17.60
2023-01-26T00:09:15.846Z,17.42
2023-01-26T00:10:18.414Z,17.23
2023-01-26T00:11:30.739Z,18.35
2023-01-26T00:12:39.723Z,16.95
2023-01-26T00:13:43.451Z,17.13
2023-01-26T00:14:52.739Z,16.45
2023-01-26T00:15:55.267Z,16.70
2023-01-26T00:17:04.739Z,17.40
2023-01-26T00:18:10.425Z,16.55
2023-01-26T00:19:13.860Z,16.67
2023-01-26T00:20:37.734Z,17.27
2023-01-26T00:21:46.792Z,16.63
2023-01-26T00:22:50.175Z,16.08
2023-01-26T00:23:54.202Z,16.70
2023-01-26T00:24:56.911Z,17.50
2023-01-26T00:26:00.354Z,18.08
2023-01-26T00:27:09.847Z,17.35
2023-01-26T00:28:13.236Z,16.67
2023-01-26T00:29:15.725Z,17.13
2023-01-26T00:30:19.960Z,19.80
2023-01-26T00:31:23.666Z,18.15
2023-01-26T00:32:33.756Z,18.52
2023-01-26T00:33:37.588Z,16.75
2023-01-26T00:34:41.043Z,16.85
2023-01-26T00:35:44.762Z,16.92
2023-01-26T00:36:48.199Z,16.20
2023-01-26T00:37:57.780Z,17.00
2023-01-26T00:39:02.799Z,16.65
2023-01-26T00:40:05.582Z,16.33
2023-01-26T00:41:08.998Z,16.27
2023-01-26T00:42:13.987Z,17.02
2023-01-26T00:43:24.943Z,17.95
2023-01-26T00:44:27.431Z,15.98
2023-01-26T00:45:30.827Z,16.55
2023-01-26T00:46:33.351Z,16.50
2023-01-26T00:47:36.795Z,16.67
2023-01-26T00:48:46.744Z,16.25
2023-01-26T00:49:50.113Z,14.75
2023-01-26T00:50:52.952Z,16.38
2023-01-26T00:52:02.778Z,16.63
2023-01-26T00:53:06.300Z,15.43
2023-01-26T00:54:10.049Z,15.57
2023-01-26T00:55:13.504Z,15.18
2023-01-26T00:56:15.998Z,16.23
2023-01-26T00:57:25.759Z,15.48
2023-01-26T00:58:28.250Z,15.70
2023-01-26T00:59:33.247Z,15.40
2023-01-26T01:00:36.853Z,14.93
2023-01-26T01:01:40.629Z,15.32
2023-01-26T01:02:50.737Z,14.80
2023-01-26T01:03:54.549Z,15.10
2023-01-26T01:04:57.959Z,16.67
2023-01-26T01:06:06.899Z,16.60
2023-01-26T01:07:10.357Z,16.73
2023-01-26T01:08:12.835Z,15.30
2023-01-26T01:09:16.489Z,16.50
2023-01-26T01:10:19.099Z,15.32
2023-01-26T01:11:28.768Z,15.10
2023-01-26T01:12:31.222Z,15.25
2023-01-26T01:13:34.679Z,15.80
2023-01-26T01:14:37.212Z,16.25
2023-01-26T01:15:40.720Z,15.60
2023-01-26T01:16:50.748Z,15.32
2023-01-26T01:17:54.558Z,14.55
2023-01-26T01:18:58.512Z,15.43
2023-01-26T01:20:22.763Z,15.63
2023-01-26T01:21:31.780Z,14.18
2023-01-26T01:22:35.267Z,15.13
2023-01-26T01:23:37.949Z,14.60
2023-01-26T01:24:47.765Z,14.82
2023-01-26T01:25:57.956Z,13.73
2023-01-26T01:27:01.426Z,14.05
2023-01-26T01:28:03.977Z,14.57
2023-01-26T01:29:07.404Z,14.82
2023-01-26T01:30:16.817Z,14.65
2023-01-26T01:31:20.303Z,14.50
2023-01-26T01:32:22.837Z,14.25
2023-01-26T01:33:26.644Z,14.77
2023-01-26T01:34:30.462Z,14.73
2023-01-26T01:35:42.770Z,14.93
2023-01-26T01:36:46.360Z,14.90
2023-01-26T01:37:48.829Z,14.32
2023-01-26T01:38:52.564Z,14.82
2023-01-26T01:39:55.101Z,14.13
2023-01-26T01:41:04.808Z,14.23
2023-01-26T01:42:07.409Z,15.73
2023-01-26T01:43:12.037Z,14.27
2023-01-26T01:44:20.033Z,15.48
2023-01-26T01:45:36.258Z,13.68
2023-01-26T01:46:46.937Z,13.98
2023-01-26T01:47:49.544Z,13.70
2023-01-26T01:48:55.543Z,13.63
2023-01-26T01:50:05.735Z,13.77
2023-01-26T01:51:10.508Z,14.20
2023-01-26T01:52:15.267Z,15.00
2023-01-26T01:53:24.741Z,14.00
2023-01-26T01:54:37.789Z,15.10
2023-01-26T01:55:40.370Z,13.90
2023-01-26T01:56:46.846Z,13.73
2023-01-26T01:57:51.951Z,14.15
2023-01-26T01:58:56.439Z,14.02
2023-01-26T02:00:07.745Z,12.85
2023-01-26T02:01:11.764Z,13.98
2023-01-26T02:02:14.912Z,13.52
2023-01-26T02:03:27.763Z,14.93
2023-01-26T02:04:30.504Z,13.90
2023-01-26T02:05:37.593Z,13.80
2023-01-26T02:06:42.991Z,15.07
2023-01-26T02:07:46.447Z,14.02
2023-01-26T02:08:57.750Z,14.82
2023-01-26T02:10:18.988Z,13.30
2023-01-26T02:11:30.775Z,13.85
2023-01-26T02:12:34.017Z,14.80
2023-01-26T02:13:44.738Z,14.90
2023-01-26T02:14:47.417Z,14.93
2023-01-26T02:15:51.550Z,15.32
2023-01-26T02:17:00.779Z,13.98
2023-01-26T02:18:05.693Z,13.63
2023-01-26T02:19:19.759Z,14.13
2023-01-26T02:20:33.936Z,14.80
2023-01-26T02:21:45.751Z,13.35
2023-01-26T02:22:52.869Z,14.20
2023-01-26T02:24:02.976Z,13.50
2023-01-26T02:25:13.780Z,15.05
2023-01-26T02:26:26.750Z,14.90
2023-01-26T02:27:29.379Z,14.13
2023-01-26T02:28:32.982Z,15.55
2023-01-26T02:29:35.529Z,15.40
2023-01-26T02:30:45.798Z,15.60
2023-01-26T02:31:55.773Z,15.52
2023-01-26T02:32:59.252Z,14.43
2023-01-26T02:34:01.704Z,13.88
2023-01-26T02:35:05.219Z,13.88
2023-01-26T02:36:14.750Z,14.73
2023-01-26T02:37:18.217Z,13.75
2023-01-26T02:38:22.566Z,14.07
2023-01-26T02:39:30.528Z,14.57
2023-01-26T02:40:37.256Z,14.30
2023-01-26T02:42:05.719Z,14.18
2023-01-26T02:43:15.794Z,13.88
2023-01-26T02:44:18.457Z,14.32
2023-01-26T02:45:22.640Z,14.65
2023-01-26T02:46:25.163Z,14.48
2023-01-26T02:47:35.143Z,13.77
2023-01-26T02:48:55.334Z,13.80
2023-01-26T02:49:58.821Z,14.13
2023-01-26T02:51:02.311Z,13.90
2023-01-26T02:52:05.348Z,13.05
2023-01-26T02:53:15.768Z,14.18
2023-01-26T02:54:33.152Z,14.05
2023-01-26T02:55:35.637Z,13.82
2023-01-26T02:56:40.968Z,14.82
2023-01-26T02:57:45.320Z,12.68
2023-01-26T02:58:55.755Z,13.55
2023-01-26T02:59:58.291Z,13.20
2023-01-26T03:01:08.758Z,13.77
2023-01-26T03:02:11.604Z,13.88
2023-01-26T03:03:16.500Z,13.35
2023-01-26T03:04:18.968Z,13.40
2023-01-26T03:05:28.738Z,14.10
2023-01-26T03:06:32.193Z,12.52
2023-01-26T03:07:35.034Z,14.93
2023-01-26T03:08:44.779Z,14.02
2023-01-26T03:09:47.469Z,15.25
2023-01-26T03:10:50.889Z,14.95
2023-01-26T03:11:53.418Z,15.20
2023-01-26T03:12:58.801Z,16.35
2023-01-26T03:14:07.757Z,16.65
2023-01-26T03:15:29.117Z,16.50
2023-01-26T03:16:32.584Z,15.00
2023-01-26T03:17:35.126Z,16.23
2023-01-26T03:18:56.133Z,17.50
2023-01-26T03:20:23.766Z,16.38
2023-01-26T03:21:51.566Z,15.48
2023-01-26T03:23:12.645Z,16.38
2023-01-26T03:24:34.085Z,16.25
2023-01-26T03:26:02.764Z,15.30
2023-01-26T03:27:23.997Z,15.43
2023-01-26T03:28:28.753Z,17.05
2023-01-26T03:29:37.995Z,16.45
2023-01-26T03:30:47.753Z,17.30
2023-01-26T03:31:56.744Z,16.08
2023-01-26T03:33:00.190Z,17.15
2023-01-26T03:34:02.815Z,16.85
2023-01-26T03:35:06.744Z,16.98
2023-01-26T03:36:15.791Z,17.05
2023-01-26T03:37:22.159Z,16.50
2023-01-26T03:38:24.643Z,15.68
2023-01-26T03:39:45.433Z,16.55
2023-01-26T03:41:06.716Z,15.40
2023-01-26T03:42:34.789Z,15.18
2023-01-26T03:43:57.222Z,15.45
2023-01-26T03:45:18.419Z,16.00
2023-01-26T03:46:45.745Z,16.48
2023-01-26T03:48:12.806Z,15.07
2023-01-26T03:49:34.077Z,14.60
2023-01-26T03:50:55.446Z,15.65
2023-01-26T03:52:16.279Z,15.02
2023-01-26T03:53:44.740Z,16.00
2023-01-26T03:55:12.671Z,15.07
2023-01-26T03:56:21.749Z,15.60
2023-01-26T03:57:31.811Z,14.93
2023-01-26T03:58:34.287Z,15.40
2023-01-26T03:59:39.172Z,16.88
2023-01-26T04:00:41.740Z,14.85
2023-01-26T04:02:03.982Z,15.50
2023-01-26T04:03:34.181Z,15.60
2023-01-26T04:04:55.418Z,14.93
2023-01-26T04:06:17.794Z,14.90
2023-01-26T04:07:38.845Z,14.48
2023-01-26T04:08:48.775Z,14.95
2023-01-26T04:09:51.266Z,14.07
2023-01-26T04:11:01.877Z,15.60
2023-01-26T04:12:05.556Z,15.73
2023-01-26T04:13:26.702Z,16.33
2023-01-26T04:14:49.457Z,16.00
2023-01-26T04:16:18.888Z,15.40
2023-01-26T04:17:39.861Z,17.42
2023-01-26T04:19:01.133Z,16.45
2023-01-26T04:20:28.745Z,16.25
2023-01-26T04:21:45.793Z,15.82
2023-01-26T04:22:49.249Z,16.33
2023-01-26T04:23:52.334Z,17.27
2023-01-26T04:24:57.308Z,17.13
2023-01-26T04:25:59.876Z,17.35
2023-01-26T04:27:09.821Z,18.48
2023-01-26T04:28:12.322Z,15.63
2023-01-26T04:29:16.632Z,15.75
2023-01-26T04:30:19.813Z,16.58
2023-01-26T04:31:24.630Z,16.48
2023-01-26T04:32:33.767Z,18.50
2023-01-26T04:33:37.204Z,17.75
2023-01-26T04:34:40.597Z,17.77
2023-01-26T04:35:43.078Z,17.80
2023-01-26T04:36:46.485Z,17.23
2023-01-26T04:37:55.788Z,17.02
2023-01-26T04:39:05.738Z,18.08
2023-01-26T04:40:08.987Z,17.40
2023-01-26T04:41:12.626Z,18.52
2023-01-26T04:42:15.138Z,18.50
2023-01-26T04:43:24.827Z,17.52
2023-01-26T04:44:27.347Z,18.02
2023-01-26T04:45:30.794Z,18.00
2023-01-26T04:46:34.609Z,17.67
2023-01-26T04:47:38.020Z,17.25
2023-01-26T04:48:46.760Z,15.77
2023-01-26T04:49:50.398Z,16.85
2023-01-26T04:50:54.708Z,16.88
2023-01-26T04:51:58.148Z,15.80
2023-01-26T04:53:01.594Z,16.60
2023-01-26T04:54:10.774Z,17.52
2023-01-26T04:55:14.174Z,16.02
2023-01-26T04:56:20.226Z,16.02
2023-01-26T04:57:24.831Z,16.60
2023-01-26T04:58:28.338Z,17.05
2023-01-26T04:59:37.777Z,18.75
2023-01-26T05:00:41.226Z,16.20
2023-01-26T05:01:45.105Z,17.80
2023-01-26T05:02:48.525Z,17.35
2023-01-26T05:03:51.059Z,17.90
2023-01-26T05:05:00.784Z,17.90
2023-01-26T05:06:03.281Z,16.92
2023-01-26T05:07:06.681Z,16.63
2023-01-26T05:08:09.177Z,17.45
2023-01-26T05:09:19.732Z,17.98
2023-01-26T05:10:22.252Z,16.98
2023-01-26T05:11:32.812Z,17.02
2023-01-26T05:12:35.394Z,15.93
2023-01-26T05:13:39.815Z,18.77
2023-01-26T05:14:42.329Z,17.55
2023-01-26T05:15:45.748Z,16.98
2023-01-26T05:16:56.118Z,16.95
2023-01-26T05:18:00.173Z,17.35
2023-01-26T05:19:02.893Z,16.55
2023-01-26T05:20:13.296Z,18.23
2023-01-26T05:21:30.980Z,17.52
2023-01-26T05:22:40.766Z,15.85
2023-01-26T05:23:44.304Z,18.00
2023-01-26T05:24:53.762Z,17.08
2023-01-26T05:25:57.171Z,17.27
2023-01-26T05:27:14.523Z,17.33
2023-01-26T05:28:24.775Z,16.65
2023-01-26T05:29:27.250Z,16.67
2023-01-26T05:30:30.691Z,16.42
2023-01-26T05:31:33.430Z,16.30
2023-01-26T05:32:40.341Z,15.88
2023-01-26T05:33:49.777Z,15.20
2023-01-26T05:34:53.167Z,15.05
2023-01-26T05:36:01.755Z,16.95
2023-01-26T05:37:05.271Z,16.50
2023-01-26T05:38:07.869Z,17.08
2023-01-26T05:39:17.770Z,18.33
2023-01-26T05:40:21.917Z,16.75
2023-01-26T05:41:25.329Z,17.45
2023-01-26T05:42:30.480Z,16.35
2023-01-26T05:43:33.950Z,15.73
2023-01-26T05:44:42.740Z,17.27
2023-01-26T05:45:46.333Z,16.88
2023-01-26T05:46:48.876Z,16.50
2023-01-26T05:47:59.799Z,15.90
2023-01-26T05:49:02.277Z,16.38
2023-01-26T05:50:05.946Z,16.23
2023-01-26T05:51:08.448Z,16.38
2023-01-26T05:52:12.781Z,17.02
2023-01-26T05:53:21.854Z,16.13
2023-01-26T05:54:25.261Z,16.40
2023-01-26T05:55:27.811Z,17.15
2023-01-26T05:56:31.250Z,16.85
2023-01-26T05:57:33.898Z,15.88
2023-01-26T05:58:43.817Z,17.50
2023-01-26T05:59:47.255Z,15.38
2023-01-26T06:00:56.771Z,14.93
2023-01-26T06:01:59.699Z,16.30
2023-01-26T06:03:04.477Z,16.20
2023-01-26T06:04:07.095Z,16.13
2023-01-26T06:05:17.841Z,16.02
2023-01-26T06:06:20.387Z,14.27
2023-01-26T06:07:23.809Z,16.23
2023-01-26T06:08:26.487Z,15.05
2023-01-26T06:09:29.913Z,15.63
2023-01-26T06:10:38.730Z,14.85
2023-01-26T06:11:42.159Z,14.95
2023-01-26T06:12:44.809Z,14.85
2023-01-26T06:13:48.783Z,14.52
2023-01-26T06:14:57.763Z,14.88
2023-01-26T06:16:02.564Z,14.35
2023-01-26T06:17:05.031Z,14.38
2023-01-26T06:18:09.712Z,13.52
2023-01-26T06:19:12.307Z,13.02
2023-01-26T06:20:22.807Z,13.57
2023-01-26T06:21:32.971Z,14.00
2023-01-26T06:22:35.503Z,13.15
2023-01-26T06:23:38.938Z,14.75
2023-01-26T06:24:47.847Z,14.25
2023-01-26T06:25:51.977Z,13.65
2023-01-26T06:26:54.676Z,13.93
2023-01-26T17:46:44.018Z,23.38
2023-01-26T17:47:46.785Z,21.98
2023-01-26T17:48:57.996Z,22.67
2023-01-26T17:50:07.010Z,23.27
2023-01-26T17:51:11.492Z,22.35
2023-01-26T17:52:14.566Z,23.58
2023-01-26T17:53:18.993Z,23.65
2023-01-26T17:54:22.771Z,23.88
2023-01-26T17:55:31.863Z,23.88
2023-01-26T17:56:41.994Z,22.60
2023-01-26T17:57:44.682Z,22.92
2023-01-26T17:58:49.883Z,22.58
2023-01-26T17:59:58.846Z,22.58
2023-01-26T18:01:02.316Z,21.95
2023-01-26T18:02:07.236Z,21.92
2023-01-26T18:03:10.748Z,22.85
2023-01-26T18:04:20.856Z,23.00
2023-01-26T18:05:24.350Z,22.80
2023-01-26T18:06:26.908Z,22.52
2023-01-26T18:07:30.339Z,23.50
2023-01-26T18:08:32.874Z,24.15
2023-01-26T18:09:42.902Z,23.38
2023-01-26T18:10:45.508Z,24.40
2023-01-26T18:11:49.963Z,25.08
2023-01-26T18:12:52.631Z,25.10
2023-01-26T18:13:57.701Z,26.75
2023-01-26T18:15:06.867Z,24.98
2023-01-26T18:16:17.961Z,24.27
2023-01-26T18:17:23.060Z,25.42
2023-01-26T18:18:26.246Z,27.35
2023-01-26T18:19:29.759Z,29.92
2023-01-26T18:20:32.360Z,31.08
2023-01-26T18:21:43.887Z,28.20
2023-01-26T18:22:47.333Z,27.98
2023-01-26T18:23:51.718Z,26.58
2023-01-26T18:24:54.187Z,28.13
2023-01-26T18:26:03.850Z,28.13
2023-01-26T18:27:13.939Z,25.20
2023-01-26T18:28:17.778Z,25.42
2023-01-26T18:29:21.247Z,24.65
2023-01-26T18:30:23.985Z,26.48
2023-01-26T18:31:28.540Z,26.98
2023-01-26T18:32:39.840Z,25.77
2023-01-26T18:33:43.359Z,26.55
2023-01-26T18:34:46.480Z,27.98
2023-01-26T18:35:49.930Z,27.25
2023-01-26T18:36:59.865Z,26.38
2023-01-26T18:38:03.345Z,25.95
2023-01-26T18:39:06.939Z,26.52
2023-01-26T18:40:19.924Z,26.45
2023-01-26T18:41:24.446Z,25.27
2023-01-26T18:42:26.991Z,25.52
2023-01-26T18:43:32.703Z,27.45
2023-01-26T18:44:36.168Z,26.77
2023-01-26T18:45:48.926Z,26.38
2023-01-26T18:47:12.980Z,26.88
2023-01-26T18:48:16.792Z,27.30
2023-01-26T18:49:20.185Z,27.33
2023-01-26T18:50:22.726Z,25.13
2023-01-26T18:51:26.185Z,26.85
2023-01-26T18:52:34.905Z,27.48
2023-01-26T18:53:40.158Z,28.67
2023-01-26T18:54:43.842Z,27.50
2023-01-26T18:55:46.399Z,26.05
2023-01-26T18:56:49.847Z,27.33
2023-01-26T18:58:01.867Z,26.90
2023-01-26T18:59:06.509Z,26.80
2023-01-26T19:00:09.650Z,26.73
2023-01-26T19:01:14.235Z,26.90
2023-01-26T19:02:18.131Z,26.75
2023-01-26T19:03:28.986Z,28.50
2023-01-26T19:04:32.641Z,28.95
2023-01-26T19:05:36.253Z,28.98
2023-01-26T19:06:39.696Z,28.90
2023-01-26T19:07:42.384Z,31.08
2023-01-26T19:08:52.936Z,26.58
2023-01-26T19:09:56.354Z,26.00
2023-01-26T19:11:04.616Z,28.13
2023-01-26T19:12:08.584Z,27.02
2023-01-26T19:13:11.144Z,27.58
2023-01-26T19:14:21.922Z,26.90
2023-01-26T19:15:24.421Z,28.00
2023-01-26T19:16:28.202Z,27.35
2023-01-26T19:17:30.815Z,26.48
2023-01-26T19:18:35.636Z,27.70
2023-01-26T19:19:47.904Z,27.05
2023-01-26T19:20:55.543Z,26.90
2023-01-26T19:22:05.882Z,24.77
2023-01-26T19:23:08.535Z,25.95
2023-01-26T19:24:12.010Z,24.58
2023-01-26T19:25:14.505Z,24.92
2023-01-26T19:26:19.465Z,26.15
2023-01-26T19:27:29.915Z,26.33
2023-01-26T19:28:32.542Z,26.20
2023-01-26T19:29:36.008Z,26.48
2023-01-26T19:30:44.931Z,25.40
2023-01-26T19:31:48.519Z,27.20
2023-01-26T19:33:09.637Z,27.30
2023-01-26T19:34:16.923Z,27.85
2023-01-26T19:35:25.864Z,25.60
2023-01-26T19:36:30.236Z,27.20
2023-01-26T19:37:39.883Z,26.77
2023-01-26T19:38:42.375Z,25.02
2023-01-26T19:39:45.815Z,28.25
2023-01-26T19:40:49.597Z,28.50
2023-01-26T19:41:59.863Z,26.45
2023-01-26T19:43:02.601Z,26.52
2023-01-26T19:44:06.481Z,26.63
2023-01-26T19:45:09.600Z,27.40
2023-01-26T19:46:34.035Z,27.35
2023-01-26T19:47:50.917Z,25.55
2023-01-26T19:48:55.055Z,25.40
2023-01-26T19:49:59.055Z,26.05
2023-01-26T19:51:04.180Z,27.42
2023-01-26T19:52:07.882Z,26.35
2023-01-26T19:53:16.878Z,25.65
2023-01-26T19:54:20.675Z,24.10
2023-01-26T19:55:23.469Z,26.17
2023-01-26T19:56:28.005Z,22.83
2023-01-26T19:57:32.198Z,22.88
2023-01-26T19:58:41.853Z,24.65
2023-01-26T19:59:51.874Z,26.13
2023-01-26T20:00:59.060Z,23.55
2023-01-26T20:02:02.635Z,24.80
2023-01-26T20:03:05.195Z,23.48
2023-01-26T20:04:16.891Z,24.42
2023-01-26T20:05:21.065Z,22.17
2023-01-26T20:06:25.910Z,22.92
2023-01-26T20:07:28.761Z,22.10
2023-01-26T20:08:32.610Z,23.67
2023-01-26T20:09:43.043Z,24.10
2023-01-26T20:10:45.597Z,23.95
2023-01-26T20:11:50.799Z,24.65
2023-01-26T20:12:53.299Z,22.77
2023-01-26T20:13:57.133Z,23.75
2023-01-26T20:15:05.836Z,22.13
2023-01-26T20:16:11.029Z,20.92
2023-01-26T20:17:13.826Z,21.50
2023-01-26T20:18:17.526Z,21.85
2023-01-26T20:19:20.119Z,21.60
2023-01-26T20:20:32.040Z,21.50
2023-01-26T20:21:37.025Z,21.33
2023-01-26T20:22:40.534Z,21.63
2023-01-26T20:23:53.653Z,20.17
2023-01-26T20:24:58.079Z,20.83
2023-01-26T20:26:11.879Z,21.38
2023-01-26T20:27:14.339Z,20.23
2023-01-26T20:28:17.856Z,18.77
2023-01-26T20:29:21.004Z,19.05
2023-01-26T20:30:24.435Z,17.75
2023-01-26T20:31:34.035Z,18.35
2023-01-26T20:32:37.519Z,19.10
2023-01-26T20:33:41.103Z,17.55
2023-01-26T20:34:43.692Z,17.27
2023-01-26T20:35:54.855Z,16.70
2023-01-26T20:37:06.911Z,17.17
2023-01-26T20:38:12.478Z,16.67
2023-01-26T20:39:16.417Z,16.73
2023-01-26T20:40:19.776Z,17.63
2023-01-26T20:41:24.257Z,17.65
2023-01-26T20:42:33.859Z,16.85
2023-01-26T20:43:39.520Z,16.25
2023-01-26T20:44:44.984Z,17.52
2023-01-26T20:45:47.537Z,15.63
2023-01-26T20:46:57.862Z,15.60
2023-01-26T20:48:13.897Z,14.27
2023-01-26T20:49:24.039Z,15.60
2023-01-26T20:50:27.456Z,15.15
2023-01-26T20:51:33.923Z,15.23
2023-01-26T20:52:43.871Z,15.10
2023-01-26T20:53:48.559Z,15.68
2023-01-26T20:54:51.785Z,15.95
2023-01-26T20:55:58.690Z,15.63
2023-01-26T20:57:08.908Z,15.70
2023-01-26T20:58:12.526Z,15.55
2023-01-26T20:59:15.005Z,15.57
2023-01-26T21:00:19.470Z,15.48
2023-01-26T21:01:28.986Z,15.45
2023-01-26T21:02:38.890Z,15.07
2023-01-26T21:03:42.848Z,13.43
2023-01-26T21:04:45.388Z,14.95
2023-01-26T21:05:48.851Z,15.20
2023-01-26T21:06:54.264Z,15.27
2023-01-26T21:08:03.881Z,15.60
2023-01-26T21:09:07.458Z,16.15
2023-01-26T21:10:16.956Z,14.85
2023-01-26T21:11:20.426Z,14.93
2023-01-26T21:12:23.025Z,14.88
2023-01-26T21:13:27.954Z,15.68
2023-01-26T21:14:31.542Z,15.07
2023-01-26T21:15:40.881Z,14.88
2023-01-26T21:16:44.476Z,13.88
2023-01-26T21:17:48.111Z,14.75
2023-01-26T21:18:51.650Z,14.98
2023-01-26T21:19:55.143Z,14.85
2023-01-26T21:21:04.925Z,14.50
2023-01-26T21:22:09.758Z,14.75
2023-01-26T21:23:13.373Z,13.45
2023-01-26T21:24:17.059Z,14.57
2023-01-26T21:25:19.619Z,14.00
2023-01-26T21:26:30.926Z,14.32
2023-01-26T21:27:33.475Z,13.50
2023-01-26T21:28:37.070Z,13.43
2023-01-26T21:29:41.497Z,13.00
2023-01-26T21:30:50.914Z,13.45
2023-01-26T21:31:54.385Z,13.10
2023-01-26T21:32:57.009Z,12.45
2023-01-26T21:34:01.025Z,13.98
2023-01-26T21:35:09.948Z,13.02
2023-01-26T21:36:15.101Z,13.77
2023-01-26T21:37:19.887Z,12.00
2023-01-26T21:38:22.466Z,13.75
2023-01-26T21:39:25.919Z,13.45
2023-01-26T21:40:34.966Z,12.70
2023-01-26T21:41:56.262Z,12.25
2023-01-26T21:42:59.841Z,11.57
2023-01-26T21:44:03.321Z,12.07
2023-01-26T21:45:24.948Z,12.30
2023-01-26T21:46:34.901Z,12.40
2023-01-26T21:47:45.116Z,12.00
2023-01-26T21:48:54.324Z,12.13
2023-01-26T21:49:59.393Z,11.90
2023-01-26T21:51:26.892Z,13.18
2023-01-26T21:52:55.890Z,12.20
2023-01-26T21:53:58.397Z,11.35
2023-01-26T21:55:02.016Z,12.23
2023-01-26T21:56:04.624Z,12.20
2023-01-26T21:57:35.916Z,11.75
2023-01-26T21:58:57.032Z,11.73
2023-01-26T21:59:59.571Z,12.05
2023-01-26T22:01:09.311Z,11.75
2023-01-26T22:02:20.964Z,12.98
2023-01-26T22:03:23.572Z,12.50
2023-01-26T22:04:28.303Z,12.10
2023-01-26T22:05:31.045Z,11.93
2023-01-26T22:06:34.525Z,12.63
2023-01-26T22:07:45.959Z,13.27
2023-01-26T22:08:49.124Z,13.20
2023-01-26T22:09:52.626Z,11.90
2023-01-26T22:10:55.458Z,11.80
2023-01-26T22:11:58.906Z,14.20
2023-01-26T22:13:07.921Z,12.50
2023-01-26T22:14:15.053Z,12.90
2023-01-26T22:15:23.948Z,13.75
2023-01-26T22:16:28.039Z,14.38
2023-01-26T22:17:36.902Z,14.00
2023-01-26T22:18:41.128Z,14.27
2023-01-26T22:19:44.660Z,13.63
2023-01-26T22:20:47.174Z,12.95
2023-01-26T22:21:50.665Z,13.43
2023-01-26T22:23:00.934Z,13.95
2023-01-26T22:24:04.707Z,13.95
2023-01-26T22:25:07.475Z,14.50
2023-01-26T22:26:11.947Z,14.23
2023-01-26T22:27:21.020Z,14.48
2023-01-26T22:28:24.525Z,13.23
2023-01-26T22:29:34.922Z,13.98
2023-01-26T22:30:37.673Z,12.43
2023-01-26T22:31:41.910Z,12.93
2023-01-26T22:32:44.518Z,12.88
2023-01-26T22:33:47.997Z,13.43
2023-01-26T22:34:57.920Z,14.10
2023-01-26T22:36:01.396Z,14.18
2023-01-26T22:37:04.958Z,14.27
2023-01-26T22:38:08.843Z,13.68
2023-01-26T22:39:19.893Z,13.02
2023-01-26T22:40:28.900Z,13.32
2023-01-26T22:41:32.398Z,12.30
2023-01-26T22:42:34.981Z,13.60
2023-01-26T22:43:38.532Z,13.13
2023-01-26T22:44:48.977Z,12.90
2023-01-26T22:45:51.664Z,12.57
2023-01-26T22:47:02.070Z,12.50
2023-01-26T22:48:17.889Z,12.05
2023-01-26T22:49:21.404Z,12.80
2023-01-26T22:50:30.894Z,12.27
2023-01-26T22:51:37.575Z,12.52
2023-01-26T22:52:40.233Z,12.05
2023-01-26T22:53:45.021Z,11.52
2023-01-26T22:54:53.912Z,13.18
2023-01-26T22:56:03.916Z,12.07
2023-01-26T22:57:07.362Z,12.20
2023-01-26T22:58:10.839Z,13.65
2023-01-26T22:59:14.325Z,12.57
2023-01-26T23:00:17.194Z,12.25
2023-01-26T23:01:28.085Z,12.25
2023-01-26T23:02:31.678Z,12.90
2023-01-26T23:03:34.264Z,13.35
2023-01-26T23:04:38.068Z,12.60
2023-01-26T23:05:40.646Z,13.30
2023-01-26T23:06:57.962Z,13.02
2023-01-26T23:08:00.569Z,12.75
2023-01-26T23:09:05.506Z,13.35
2023-01-26T23:10:08.593Z,13.30
2023-01-26T23:11:14.080Z,12.38
2023-01-26T23:12:22.953Z,13.25
2023-01-26T23:13:26.426Z,12.63
2023-01-26T23:14:28.996Z,12.70
2023-01-26T23:15:32.555Z,12.70
2023-01-26T23:16:36.119Z,13.38
2023-01-26T23:17:44.926Z,13.90
2023-01-26T23:18:48.477Z,11.88
2023-01-26T23:19:57.920Z,12.82
2023-01-26T23:21:01.613Z,12.80
2023-01-26T23:22:04.634Z,12.60
2023-01-26T23:23:08.114Z,12.68
2023-01-26T23:24:12.009Z,13.15
2023-01-26T23:25:39.903Z,12.88
2023-01-26T23:26:43.433Z,10.85
2023-01-26T23:27:46.093Z,12.88
2023-01-26T23:28:49.788Z,11.77
2023-01-26T23:30:00.269Z,11.63
2023-01-26T23:31:06.205Z,10.23
2023-01-26T23:32:08.822Z,9.63
2023-01-26T23:33:12.345Z,9.88
2023-01-26T23:34:15.883Z,9.30
2023-01-26T23:35:26.543Z,8.68
2023-01-26T23:36:30.287Z,8.77
2023-01-26T23:37:38.922Z,9.35
2023-01-26T23:38:42.475Z,8.70
2023-01-26T23:39:52.920Z,8.05
2023-01-26T23:40:56.392Z,8.38
2023-01-26T23:41:58.965Z,8.43
2023-01-26T23:43:16.714Z,8.38
2023-01-26T23:44:20.784Z,7.88
2023-01-26T23:45:23.335Z,8.77
2023-01-26T23:46:26.967Z,8.32
2023-01-26T23:47:49.907Z,8.07
2023-01-26T23:48:59.899Z,8.07
2023-01-26T23:50:02.423Z,8.05
2023-01-26T23:51:12.900Z,8.05
2023-01-26T23:52:15.380Z,8.27
2023-01-26T23:53:18.802Z,7.53
2023-01-26T23:54:21.321Z,8.07
2023-01-26T23:55:26.075Z,8.13
2023-01-26T23:56:35.938Z,7.55
2023-01-26T23:57:38.406Z,7.63
2023-01-26T23:58:42.944Z,7.85
2023-01-26T23:59:45.439Z,7.70
